createdAt,value
2022-08-22T05:07:20.480Z,23.88
2022-08-22T05:09:52.744Z,22.20
2022-08-22T05:12:31.815Z,23.48
2022-08-22T05:15:22.959Z,22.60
2022-08-22T05:17:51.768Z,22.05
2022-08-22T05:20:22.749Z,22.35
2022-08-22T05:22:52.885Z,23.77
2022-08-22T05:25:22.592Z,22.63
2022-08-22T05:27:56.330Z,23.63
2022-08-22T05:30:28.612Z,22.98
2022-08-22T05:32:59.314Z,22.42
2022-08-22T05:35:35.426Z,22.53
2022-08-22T05:38:03.514Z,22.33
2022-08-22T05:40:31.455Z,22.00
2022-08-22T05:42:58.437Z,21.40
2022-08-22T05:45:26.461Z,21.90
2022-08-22T05:47:58.986Z,21.30
2022-08-22T05:50:36.833Z,22.60
2022-08-22T05:53:14.456Z,21.52
2022-08-22T05:55:53.059Z,21.00
2022-08-22T05:58:31.770Z,20.35
2022-08-22T06:01:21.376Z,20.47
2022-08-22T06:04:04.634Z,20.02
2022-08-22T06:06:52.540Z,20.15
2022-08-22T06:09:37.920Z,19.80
2022-08-22T06:12:22.808Z,20.02
2022-08-22T06:15:20.773Z,19.60
2022-08-22T06:17:49.959Z,19.00
2022-08-22T06:20:26.009Z,18.90
2022-08-22T06:22:57.783Z,18.60
2022-08-22T06:25:36.015Z,18.33
2022-08-22T06:28:08.737Z,18.27
2022-08-22T06:30:36.904Z,17.52
2022-08-22T06:33:07.552Z,16.38
2022-08-22T06:36:03.498Z,16.05
2022-08-22T06:38:33.485Z,15.52
2022-08-22T06:41:05.608Z,15.73
2022-08-22T06:43:43.201Z,15.10
2022-08-22T06:46:11.127Z,14.77
2022-08-22T06:48:38.190Z,15.15
2022-08-22T06:51:07.005Z,14.90
2022-08-22T06:53:38.216Z,14.40
2022-08-22T06:56:13.152Z,14.52
2022-08-22T06:58:44.034Z,14.10
2022-08-22T07:01:21.555Z,13.57
2022-08-22T07:03:53.547Z,13.65
2022-08-22T07:06:34.745Z,13.40
2022-08-22T07:09:05.542Z,13.27
2022-08-22T07:11:37.359Z,13.35
2022-08-22T07:14:06.958Z,11.65
2022-08-22T07:16:40.082Z,12.50
2022-08-22T07:19:06.876Z,11.37
2022-08-22T07:21:47.366Z,11.02
2022-08-22T07:24:17.152Z,10.35
2022-08-22T07:26:56.977Z,10.35
2022-08-22T07:29:49.242Z,10.70
2022-08-22T07:32:19.825Z,9.97
2022-08-22T07:35:13.046Z,9.82
2022-08-22T07:37:48.565Z,10.38
2022-08-22T07:40:24.165Z,9.50
2022-08-22T07:43:08.874Z,10.23
2022-08-22T07:45:41.063Z,9.80
2022-08-22T07:48:30.523Z,10.18
2022-08-22T07:51:01.045Z,10.40
2022-08-22T07:53:30.288Z,10.32
2022-08-22T07:55:57.862Z,11.52
2022-08-22T07:58:27.191Z,10.83
2022-08-22T08:00:54.403Z,10.60
2022-08-22T08:03:22.321Z,10.77
2022-08-22T08:05:49.121Z,10.50
2022-08-22T08:08:20.954Z,10.38
2022-08-22T08:10:48.862Z,10.30
2022-08-22T08:13:23.126Z,10.52
2022-08-22T08:15:50.540Z,10.32
2022-08-22T08:18:21.847Z,10.30
2022-08-22T08:20:59.354Z,11.27
2022-08-22T08:23:29.334Z,11.10
2022-08-22T08:26:03.325Z,10.63
2022-08-22T08:28:36.059Z,11.05
2022-08-22T08:31:26.877Z,11.48
2022-08-22T08:34:05.883Z,11.15
2022-08-22T08:36:44.473Z,10.97
2022-08-22T08:39:24.402Z,11.40
2022-08-22T08:42:00.114Z,12.35
2022-08-22T08:44:37.232Z,11.43
2022-08-22T08:47:09.745Z,12.02
2022-08-22T08:49:50.579Z,11.53
2022-08-22T08:52:52.244Z,11.25
2022-08-22T08:55:41.216Z,10.57
2022-08-22T08:58:10.978Z,11.75
2022-08-22T09:01:14.054Z,12.23
2022-08-22T09:03:51.420Z,10.67
2022-08-22T09:06:50.660Z,10.55
2022-08-22T09:09:25.689Z,10.98
2022-08-22T09:12:13.748Z,11.13
2022-08-22T09:14:58.901Z,10.07
2022-08-22T09:17:50.585Z,10.73
2022-08-22T09:20:46.296Z,9.68
2022-08-22T09:23:37.757Z,9.50
2022-08-22T09:26:12.871Z,10.32
2022-08-22T09:28:54.614Z,9.93
2022-08-22T09:31:47.502Z,9.27
2022-08-22T09:34:37.151Z,9.43
2022-08-22T09:37:22.619Z,9.75
2022-08-22T09:43:13.067Z,10.20
2022-08-22T09:46:11.154Z,9.77
2022-08-22T09:49:16.574Z,9.73
2022-08-22T09:51:46.027Z,9.60
2022-08-22T09:54:23.015Z,10.13
2022-08-22T09:57:36.210Z,10.35
2022-08-22T10:00:05.923Z,9.80
2022-08-22T10:02:43.579Z,10.80
2022-08-22T10:05:40.981Z,10.07
2022-08-22T10:08:05.275Z,9.55
2022-08-22T10:10:38.135Z,10.20
2022-08-22T10:13:31.341Z,10.70
2022-08-22T10:16:39.569Z,10.23
2022-08-22T10:19:10.209Z,9.63
2022-08-22T10:22:02.402Z,9.75
2022-08-22T10:24:47.156Z,8.88
2022-08-22T10:27:18.211Z,7.93
2022-08-22T10:29:57.581Z,7.40
2022-08-22T10:32:33.439Z,7.55
2022-08-22T10:35:13.997Z,7.43
2022-08-22T10:37:50.296Z,7.80
2022-08-22T10:40:41.398Z,8.30
2022-08-22T10:43:30.864Z,7.25
2022-08-22T10:46:04.362Z,8.18
2022-08-22T10:48:36.313Z,7.75
2022-08-22T10:51:16.566Z,7.70
2022-08-22T10:54:11.111Z,7.43
2022-08-22T10:56:46.415Z,7.38
2022-08-22T10:59:40.877Z,8.20
2022-08-22T11:02:10.294Z,8.10
2022-08-22T11:05:18.902Z,6.78
2022-08-22T11:08:10.242Z,7.33
2022-08-22T11:11:11.409Z,7.07
2022-08-22T11:13:43.445Z,6.72
2022-08-22T11:16:36.795Z,7.72
2022-08-22T11:19:22.826Z,6.05
2022-08-22T11:22:15.230Z,6.07
2022-08-22T11:25:12.614Z,6.25
2022-08-22T11:27:54.267Z,6.10
2022-08-22T11:30:36.361Z,6.30
2022-08-22T11:33:46.700Z,5.63
2022-08-22T11:36:34.833Z,5.83
2022-08-22T11:39:34.623Z,6.57
2022-08-22T11:42:09.493Z,6.20
2022-08-22T11:44:57.213Z,6.32
2022-08-22T11:47:28.920Z,6.25
2022-08-22T11:50:11.486Z,6.10
2022-08-22T11:53:01.573Z,6.07
2022-08-22T11:55:47.354Z,5.75
2022-08-22T11:58:29.129Z,6.45
2022-08-22T12:00:58.773Z,5.43
2022-08-22T12:03:58.072Z,6.20
2022-08-22T12:06:31.925Z,6.32
2022-08-22T12:09:36.434Z,5.95
2022-08-22T12:19:33.989Z,6.00
2022-08-22T12:22:38.585Z,6.28
2022-08-22T12:25:49.596Z,5.50
2022-08-22T12:28:38.853Z,5.80
2022-08-22T12:31:20.715Z,6.80
2022-08-22T12:33:56.194Z,6.97
2022-08-22T12:36:33.790Z,7.55
2022-08-22T12:39:00.687Z,7.32
2022-08-22T12:42:07.633Z,8.50
2022-08-22T12:45:12.042Z,7.32
2022-08-22T12:48:12.565Z,6.63
2022-08-22T12:50:43.750Z,6.85
2022-08-22T12:53:23.552Z,7.70
2022-08-22T12:56:14.458Z,7.60
2022-08-22T12:58:51.182Z,7.20
2022-08-22T13:01:18.621Z,7.97
2022-08-22T13:03:57.721Z,7.25
2022-08-22T13:06:36.469Z,7.63
2022-08-22T13:09:30.871Z,8.63
2022-08-22T13:12:26.295Z,8.40
2022-08-22T13:15:16.265Z,8.93
2022-08-22T13:17:46.143Z,8.25
2022-08-22T13:20:26.806Z,9.30
2022-08-22T13:22:54.504Z,8.38
2022-08-22T13:25:26.006Z,7.70
2022-08-22T13:27:59.244Z,7.07
2022-08-22T13:30:33.215Z,7.30
2022-08-22T13:33:09.984Z,7.68
2022-08-22T13:35:51.685Z,7.30
2022-08-22T13:38:51.751Z,6.78
2022-08-22T13:41:22.925Z,6.53
2022-08-22T13:43:57.809Z,6.93
2022-08-22T13:46:30.072Z,7.20
2022-08-22T13:49:01.154Z,7.80
2022-08-22T13:51:41.021Z,7.28
2022-08-22T13:54:10.853Z,7.23
2022-08-22T13:56:53.537Z,6.75
2022-08-22T13:59:59.447Z,7.38
2022-08-22T14:02:56.384Z,7.43
2022-08-22T14:05:30.218Z,7.20
2022-08-22T14:08:25.857Z,6.40
2022-08-22T14:11:06.787Z,6.95
2022-08-22T14:13:57.581Z,6.72
2022-08-22T14:16:28.561Z,7.35
2022-08-22T14:19:06.270Z,6.90
2022-08-22T14:21:46.232Z,6.40
2022-08-22T14:24:47.737Z,5.28
2022-08-22T14:27:32.720Z,5.55
2022-08-22T14:30:04.915Z,5.35
2022-08-22T14:32:43.239Z,4.65
2022-08-22T14:35:21.439Z,3.90
2022-08-22T14:37:54.075Z,3.60
2022-08-22T14:40:25.403Z,3.45
2022-08-22T14:43:33.806Z,3.72
2022-08-22T14:46:05.993Z,3.08
2022-08-22T14:48:47.293Z,3.00
2022-08-22T14:51:23.381Z,3.38
2022-08-22T14:53:50.486Z,3.05
2022-08-22T14:56:24.150Z,3.17
2022-08-22T14:58:56.657Z,3.67
2022-08-22T15:01:26.834Z,3.60
2022-08-22T15:04:04.463Z,4.30
2022-08-22T15:06:48.151Z,4.00
2022-08-22T15:09:44.101Z,3.97
2022-08-22T15:12:30.664Z,4.00
2022-08-22T15:15:01.604Z,4.17
2022-08-22T15:17:51.038Z,3.83
2022-08-22T15:20:36.428Z,4.35
2022-08-22T15:23:20.828Z,4.85
2022-08-22T15:26:07.292Z,4.43
2022-08-22T15:28:52.706Z,4.63
2022-08-22T15:31:20.201Z,4.43
2022-08-22T15:33:47.921Z,5.00
2022-08-22T15:36:21.901Z,4.82
2022-08-22T15:38:51.630Z,5.03
2022-08-22T15:41:40.558Z,5.60
2022-08-22T15:44:37.421Z,5.20
2022-08-22T15:47:27.754Z,5.63
2022-08-22T15:50:05.723Z,5.60
2022-08-22T15:52:35.453Z,5.68
2022-08-22T15:55:16.305Z,6.00
2022-08-22T15:57:51.066Z,6.50
2022-08-22T16:00:29.705Z,6.30
2022-08-22T16:03:10.921Z,6.28
2022-08-22T16:05:46.682Z,7.15
2022-08-22T16:08:36.857Z,6.73
2022-08-22T16:11:03.309Z,6.80
2022-08-22T16:13:29.816Z,6.72
2022-08-22T16:16:05.352Z,7.40
2022-08-22T16:18:35.003Z,6.80
2022-08-22T16:21:05.377Z,6.50
2022-08-22T16:23:50.098Z,6.88
2022-08-22T16:26:31.785Z,6.65
2022-08-22T16:29:13.673Z,6.90
2022-08-22T16:31:43.856Z,7.20
2022-08-22T16:34:16.578Z,7.47
2022-08-22T16:36:54.951Z,7.53
2022-08-22T16:39:21.407Z,7.38
2022-08-22T16:41:49.005Z,7.43
2022-08-22T16:44:30.598Z,7.45
2022-08-22T16:47:18.204Z,7.20
2022-08-22T16:49:50.693Z,6.90
2022-08-22T16:52:23.264Z,7.20
2022-08-22T16:54:55.666Z,7.15
2022-08-22T16:57:54.474Z,7.00
2022-08-22T17:00:52.182Z,7.33
2022-08-22T17:03:56.254Z,7.75
2022-08-22T17:06:32.136Z,7.55
2022-08-22T17:09:12.916Z,8.02
2022-08-22T17:12:04.181Z,7.90
2022-08-22T17:15:01.654Z,7.93
2022-08-22T17:18:10.798Z,7.97
2022-08-22T17:21:16.085Z,8.38
2022-08-22T17:24:04.550Z,8.40
2022-08-22T17:26:54.311Z,8.05
2022-08-22T17:29:33.108Z,8.10
2022-08-22T17:32:18.452Z,8.20
2022-08-22T17:35:01.251Z,8.68
2022-08-22T17:37:39.875Z,8.90
2022-08-22T17:40:28.166Z,9.07
2022-08-22T17:43:03.847Z,9.07
2022-08-22T17:45:33.625Z,9.10
2022-08-22T17:48:21.174Z,9.10
2022-08-22T17:50:57.131Z,9.63
2022-08-22T17:53:49.234Z,9.70
2022-08-22T17:56:40.959Z,9.80
2022-08-22T17:59:24.845Z,9.45
2022-08-22T18:02:19.098Z,9.30
2022-08-22T18:05:00.291Z,8.10
2022-08-22T18:07:40.839Z,8.35
2022-08-22T18:10:28.039Z,8.03
2022-08-22T18:12:57.501Z,8.27
2022-08-22T18:15:34.811Z,8.20
2022-08-22T18:18:13.356Z,8.15
2022-08-22T18:21:14.905Z,8.40
2022-08-22T18:24:14.286Z,8.47
2022-08-22T18:26:58.653Z,9.27
2022-08-22T18:29:41.937Z,8.50
2022-08-22T18:32:21.499Z,8.15
2022-08-22T18:34:56.937Z,8.00
2022-08-22T18:37:35.760Z,8.57
2022-08-22T18:40:08.594Z,8.20
2022-08-22T18:42:42.014Z,8.35
2022-08-22T18:45:44.185Z,8.55
